sensor_id;sensor_type;location;lat;lon;timestamp;P1;durP1;ratioP1;P2;durP2;ratioP2
40707;SDS011;26392;42.696;23.350;2023-02-11T00:01:48;39.83;;;14.18;;
40707;SDS011;26392;42.696;23.350;2023-02-11T00:04:14;27.60;;;11.15;;
40707;SDS011;26392;42.696;23.350;2023-02-11T00:06:39;30.95;;;12.20;;
40707;SDS011;26392;42.696;23.350;2023-02-11T00:09:05;29.40;;;11.18;;
40707;SDS011;26392;42.696;23.350;2023-02-11T00:11:31;34.20;;;12.52;;
40707;SDS011;26392;42.696;23.350;2023-02-11T00:13:57;30.42;;;12.77;;
40707;SDS011;26392;42.696;23.350;2023-02-11T00:16:24;34.38;;;12.60;;
40707;SDS011;26392;42.696;23.350;2023-02-11T00:18:50;43.50;;;12.75;;
40707;SDS011;26392;42.696;23.350;2023-02-11T00:21:20;32.15;;;11.45;;
40707;SDS011;26392;42.696;23.350;2023-02-11T00:23:47;30.30;;;11.98;;
40707;SDS011;26392;42.696;23.350;2023-02-11T00:26:14;28.65;;;10.90;;
40707;SDS011;26392;42.696;23.350;2023-02-11T00:28:42;25.90;;;10.45;;
40707;SDS011;26392;42.696;23.350;2023-02-11T00:31:08;27.60;;;10.13;;
40707;SDS011;26392;42.696;23.350;2023-02-11T00:33:33;26.98;;;11.20;;
40707;SDS011;26392;42.696;23.350;2023-02-11T00:36:02;28.25;;;11.23;;
40707;SDS011;26392;42.696;23.350;2023-02-11T00:38:33;27.05;;;9.98;;
40707;SDS011;26392;42.696;23.350;2023-02-11T00:40:58;30.40;;;10.88;;
40707;SDS011;26392;42.696;23.350;2023-02-11T00:43:27;27.55;;;11.00;;
40707;SDS011;26392;42.696;23.350;2023-02-11T00:45:52;26.27;;;10.18;;
40707;SDS011;26392;42.696;23.350;2023-02-11T00:48:18;28.65;;;10.73;;
40707;SDS011;26392;42.696;23.350;2023-02-11T00:50:43;33.15;;;11.10;;
40707;SDS011;26392;42.696;23.350;2023-02-11T00:53:08;33.25;;;10.73;;
40707;SDS011;26392;42.696;23.350;2023-02-11T00:55:34;28.88;;;10.55;;
40707;SDS011;26392;42.696;23.350;2023-02-11T00:57:59;27.25;;;11.45;;
40707;SDS011;26392;42.696;23.350;2023-02-11T01:00:25;27.27;;;10.43;;
40707;SDS011;26392;42.696;23.350;2023-02-11T01:02:52;26.48;;;10.07;;
40707;SDS011;26392;42.696;23.350;2023-02-11T01:05:17;24.60;;;10.35;;
40707;SDS011;26392;42.696;23.350;2023-02-11T01:07:44;32.75;;;11.70;;
40707;SDS011;26392;42.696;23.350;2023-02-11T01:10:09;28.52;;;9.63;;
40707;SDS011;26392;42.696;23.350;2023-02-11T01:12:35;24.30;;;10.25;;
40707;SDS011;26392;42.696;23.350;2023-02-11T01:15:01;29.25;;;10.88;;
40707;SDS011;26392;42.696;23.350;2023-02-11T01:17:26;29.63;;;10.30;;
40707;SDS011;26392;42.696;23.350;2023-02-11T01:19:52;26.05;;;10.38;;
40707;SDS011;26392;42.696;23.350;2023-02-11T01:22:17;23.30;;;9.95;;
40707;SDS011;26392;42.696;23.350;2023-02-11T01:24:43;26.02;;;10.52;;
40707;SDS011;26392;42.696;23.350;2023-02-11T01:27:08;27.42;;;10.02;;
40707;SDS011;26392;42.696;23.350;2023-02-11T01:29:34;41.65;;;12.07;;
40707;SDS011;26392;42.696;23.350;2023-02-11T01:31:59;25.85;;;10.38;;
40707;SDS011;26392;42.696;23.350;2023-02-11T01:34:25;31.88;;;10.98;;
40707;SDS011;26392;42.696;23.350;2023-02-11T01:36:55;29.23;;;11.75;;
40707;SDS011;26392;42.696;23.350;2023-02-11T01:39:21;24.35;;;9.57;;
40707;SDS011;26392;42.696;23.350;2023-02-11T01:41:47;27.58;;;11.30;;
40707;SDS011;26392;42.696;23.350;2023-02-11T01:46:50;30.00;;;11.18;;
40707;SDS011;26392;42.696;23.350;2023-02-11T01:49:20;28.95;;;11.90;;
40707;SDS011;26392;42.696;23.350;2023-02-11T01:51:55;28.00;;;11.07;;
40707;SDS011;26392;42.696;23.350;2023-02-11T01:54:27;33.55;;;11.80;;
40707;SDS011;26392;42.696;23.350;2023-02-11T01:57:14;31.90;;;11.50;;
40707;SDS011;26392;42.696;23.350;2023-02-11T02:00:04;34.67;;;12.23;;
40707;SDS011;26392;42.696;23.350;2023-02-11T02:03:05;32.10;;;12.20;;
40707;SDS011;26392;42.696;23.350;2023-02-11T02:10:48;33.30;;;10.77;;
40707;SDS011;26392;42.696;23.350;2023-02-11T02:13:18;31.50;;;12.55;;
40707;SDS011;26392;42.696;23.350;2023-02-11T02:15:48;35.08;;;12.98;;
40707;SDS011;26392;42.696;23.350;2023-02-11T02:27:48;35.72;;;14.00;;
40707;SDS011;26392;42.696;23.350;2023-02-11T02:38:26;45.80;;;15.07;;
40707;SDS011;26392;42.696;23.350;2023-02-11T02:41:12;39.35;;;15.45;;
40707;SDS011;26392;42.696;23.350;2023-02-11T02:43:43;44.42;;;15.23;;
40707;SDS011;26392;42.696;23.350;2023-02-11T02:46:13;46.58;;;15.70;;
40707;SDS011;26392;42.696;23.350;2023-02-11T02:48:44;41.58;;;15.93;;
40707;SDS011;26392;42.696;23.350;2023-02-11T03:05:07;44.28;;;17.25;;
40707;SDS011;26392;42.696;23.350;2023-02-11T03:10:29;39.50;;;14.95;;
40707;SDS011;26392;42.696;23.350;2023-02-11T03:12:58;42.92;;;16.15;;
40707;SDS011;26392;42.696;23.350;2023-02-11T03:15:26;50.13;;;15.77;;
40707;SDS011;26392;42.696;23.350;2023-02-11T03:17:53;47.67;;;14.48;;
40707;SDS011;26392;42.696;23.350;2023-02-11T03:20:22;38.53;;;14.70;;
40707;SDS011;26392;42.696;23.350;2023-02-11T03:25:13;36.10;;;13.48;;
40707;SDS011;26392;42.696;23.350;2023-02-11T03:27:45;41.25;;;14.90;;
40707;SDS011;26392;42.696;23.350;2023-02-11T03:30:17;38.85;;;13.75;;
40707;SDS011;26392;42.696;23.350;2023-02-11T03:38:01;39.50;;;16.50;;
40707;SDS011;26392;42.696;23.350;2023-02-11T03:40:34;41.42;;;14.93;;
40707;SDS011;26392;42.696;23.350;2023-02-11T03:43:04;39.45;;;13.73;;
40707;SDS011;26392;42.696;23.350;2023-02-11T03:45:43;37.42;;;14.23;;
40707;SDS011;26392;42.696;23.350;2023-02-11T03:50:49;37.28;;;14.10;;
40707;SDS011;26392;42.696;23.350;2023-02-11T03:53:16;36.00;;;14.15;;
40707;SDS011;26392;42.696;23.350;2023-02-11T03:55:44;36.47;;;14.73;;
40707;SDS011;26392;42.696;23.350;2023-02-11T03:58:13;42.28;;;13.18;;
40707;SDS011;26392;42.696;23.350;2023-02-11T04:00:39;38.28;;;14.05;;
40707;SDS011;26392;42.696;23.350;2023-02-11T04:03:06;41.97;;;14.60;;
40707;SDS011;26392;42.696;23.350;2023-02-11T04:05:33;42.42;;;15.68;;
40707;SDS011;26392;42.696;23.350;2023-02-11T04:07:58;45.17;;;17.35;;
40707;SDS011;26392;42.696;23.350;2023-02-11T04:10:24;50.15;;;15.35;;
40707;SDS011;26392;42.696;23.350;2023-02-11T04:12:49;42.75;;;16.52;;
40707;SDS011;26392;42.696;23.350;2023-02-11T04:15:15;34.85;;;13.98;;
40707;SDS011;26392;42.696;23.350;2023-02-11T04:17:40;35.85;;;13.65;;
40707;SDS011;26392;42.696;23.350;2023-02-11T04:20:07;37.35;;;14.50;;
40707;SDS011;26392;42.696;23.350;2023-02-11T04:22:33;40.08;;;15.15;;
40707;SDS011;26392;42.696;23.350;2023-02-11T04:24:58;40.42;;;16.00;;
40707;SDS011;26392;42.696;23.350;2023-02-11T04:27:24;43.75;;;15.68;;
40707;SDS011;26392;42.696;23.350;2023-02-11T04:29:49;42.17;;;16.00;;
40707;SDS011;26392;42.696;23.350;2023-02-11T04:32:15;46.03;;;17.27;;
40707;SDS011;26392;42.696;23.350;2023-02-11T04:34:40;42.88;;;16.92;;
40707;SDS011;26392;42.696;23.350;2023-02-11T04:37:06;45.50;;;16.75;;
40707;SDS011;26392;42.696;23.350;2023-02-11T04:39:32;44.92;;;17.92;;
40707;SDS011;26392;42.696;23.350;2023-02-11T04:41:58;67.85;;;22.85;;
40707;SDS011;26392;42.696;23.350;2023-02-11T04:44:23;51.47;;;18.67;;
40707;SDS011;26392;42.696;23.350;2023-02-11T04:46:48;46.08;;;16.00;;
40707;SDS011;26392;42.696;23.350;2023-02-11T04:49:14;33.28;;;12.30;;
40707;SDS011;26392;42.696;23.350;2023-02-11T04:51:41;30.27;;;10.43;;
40707;SDS011;26392;42.696;23.350;2023-02-11T04:54:07;35.55;;;11.90;;
40707;SDS011;26392;42.696;23.350;2023-02-11T04:56:33;25.70;;;9.45;;
40707;SDS011;26392;42.696;23.350;2023-02-11T04:58:58;25.58;;;9.95;;
40707;SDS011;26392;42.696;23.350;2023-02-11T05:01:24;29.73;;;9.80;;
40707;SDS011;26392;42.696;23.350;2023-02-11T05:03:50;30.52;;;10.73;;
40707;SDS011;26392;42.696;23.350;2023-02-11T05:06:15;30.88;;;11.02;;
40707;SDS011;26392;42.696;23.350;2023-02-11T05:08:41;33.30;;;10.98;;
40707;SDS011;26392;42.696;23.350;2023-02-11T05:11:06;21.00;;;8.88;;
40707;SDS011;26392;42.696;23.350;2023-02-11T05:13:38;28.60;;;11.68;;
40707;SDS011;26392;42.696;23.350;2023-02-11T05:16:03;29.27;;;11.27;;
40707;SDS011;26392;42.696;23.350;2023-02-11T05:18:29;31.13;;;12.45;;
40707;SDS011;26392;42.696;23.350;2023-02-11T05:20:54;31.75;;;11.25;;
40707;SDS011;26392;42.696;23.350;2023-02-11T05:23:20;49.42;;;15.65;;
40707;SDS011;26392;42.696;23.350;2023-02-11T05:25:45;38.00;;;15.93;;
40707;SDS011;26392;42.696;23.350;2023-02-11T05:28:11;41.50;;;14.27;;
40707;SDS011;26392;42.696;23.350;2023-02-11T05:30:36;40.08;;;15.07;;
40707;SDS011;26392;42.696;23.350;2023-02-11T05:33:01;40.78;;;15.70;;
40707;SDS011;26392;42.696;23.350;2023-02-11T05:35:27;41.80;;;13.98;;
40707;SDS011;26392;42.696;23.350;2023-02-11T05:37:52;30.90;;;12.75;;
40707;SDS011;26392;42.696;23.350;2023-02-11T05:40:18;27.25;;;10.95;;
40707;SDS011;26392;42.696;23.350;2023-02-11T05:42:43;32.20;;;12.48;;
40707;SDS011;26392;42.696;23.350;2023-02-11T05:45:09;27.35;;;12.00;;
40707;SDS011;26392;42.696;23.350;2023-02-11T05:47:34;35.90;;;11.10;;
40707;SDS011;26392;42.696;23.350;2023-02-11T05:49:59;29.02;;;10.70;;
40707;SDS011;26392;42.696;23.350;2023-02-11T05:52:25;31.33;;;11.43;;
40707;SDS011;26392;42.696;23.350;2023-02-11T05:54:50;29.48;;;11.00;;
40707;SDS011;26392;42.696;23.350;2023-02-11T05:57:16;46.28;;;13.27;;
40707;SDS011;26392;42.696;23.350;2023-02-11T05:59:41;33.53;;;12.00;;
40707;SDS011;26392;42.696;23.350;2023-02-11T06:02:07;35.05;;;12.50;;
40707;SDS011;26392;42.696;23.350;2023-02-11T06:04:33;40.38;;;14.27;;
40707;SDS011;26392;42.696;23.350;2023-02-11T06:06:59;41.60;;;14.02;;
40707;SDS011;26392;42.696;23.350;2023-02-11T06:09:25;33.17;;;13.60;;
40707;SDS011;26392;42.696;23.350;2023-02-11T06:11:50;38.80;;;14.00;;
40707;SDS011;26392;42.696;23.350;2023-02-11T06:14:16;39.53;;;14.55;;
40707;SDS011;26392;42.696;23.350;2023-02-11T06:16:41;40.55;;;15.43;;
40707;SDS011;26392;42.696;23.350;2023-02-11T06:19:07;39.83;;;16.55;;
40707;SDS011;26392;42.696;23.350;2023-02-11T06:21:32;42.42;;;16.10;;
40707;SDS011;26392;42.696;23.350;2023-02-11T06:23:58;37.78;;;15.45;;
40707;SDS011;26392;42.696;23.350;2023-02-11T06:26:23;49.63;;;16.20;;
40707;SDS011;26392;42.696;23.350;2023-02-11T06:28:49;39.38;;;15.77;;
40707;SDS011;26392;42.696;23.350;2023-02-11T06:31:14;42.78;;;15.85;;
40707;SDS011;26392;42.696;23.350;2023-02-11T06:33:40;45.05;;;17.42;;
40707;SDS011;26392;42.696;23.350;2023-02-11T06:36:13;40.40;;;15.63;;
40707;SDS011;26392;42.696;23.350;2023-02-11T06:38:42;40.15;;;14.55;;
40707;SDS011;26392;42.696;23.350;2023-02-11T06:41:09;45.78;;;15.52;;
40707;SDS011;26392;42.696;23.350;2023-02-11T06:43:35;34.55;;;14.32;;
40707;SDS011;26392;42.696;23.350;2023-02-11T06:46:01;38.80;;;16.73;;
40707;SDS011;26392;42.696;23.350;2023-02-11T06:48:26;47.38;;;16.35;;
40707;SDS011;26392;42.696;23.350;2023-02-11T06:50:52;42.85;;;15.45;;
40707;SDS011;26392;42.696;23.350;2023-02-11T06:53:17;39.42;;;15.65;;
40707;SDS011;26392;42.696;23.350;2023-02-11T06:55:42;48.20;;;17.75;;
40707;SDS011;26392;42.696;23.350;2023-02-11T06:58:08;43.30;;;17.45;;
40707;SDS011;26392;42.696;23.350;2023-02-11T07:00:33;47.97;;;17.13;;
40707;SDS011;26392;42.696;23.350;2023-02-11T07:02:59;46.97;;;17.17;;
40707;SDS011;26392;42.696;23.350;2023-02-11T07:05:24;39.97;;;16.75;;
40707;SDS011;26392;42.696;23.350;2023-02-11T07:07:49;42.85;;;16.30;;
40707;SDS011;26392;42.696;23.350;2023-02-11T07:10:15;46.42;;;16.35;;
40707;SDS011;26392;42.696;23.350;2023-02-11T07:12:40;37.33;;;15.70;;
40707;SDS011;26392;42.696;23.350;2023-02-11T07:15:06;36.03;;;15.63;;
40707;SDS011;26392;42.696;23.350;2023-02-11T07:17:33;46.13;;;17.65;;
40707;SDS011;26392;42.696;23.350;2023-02-11T07:19:59;41.38;;;17.30;;
40707;SDS011;26392;42.696;23.350;2023-02-11T07:22:25;41.45;;;17.63;;
40707;SDS011;26392;42.696;23.350;2023-02-11T07:24:50;49.25;;;17.17;;
40707;SDS011;26392;42.696;23.350;2023-02-11T07:27:16;43.88;;;19.08;;
40707;SDS011;26392;42.696;23.350;2023-02-11T07:29:41;54.45;;;19.73;;
40707;SDS011;26392;42.696;23.350;2023-02-11T07:32:06;49.47;;;19.20;;
40707;SDS011;26392;42.696;23.350;2023-02-11T07:34:32;54.63;;;18.38;;
40707;SDS011;26392;42.696;23.350;2023-02-11T07:36:57;46.67;;;17.80;;
40707;SDS011;26392;42.696;23.350;2023-02-11T07:39:23;68.82;;;25.88;;
40707;SDS011;26392;42.696;23.350;2023-02-11T07:41:51;58.47;;;22.40;;
40707;SDS011;26392;42.696;23.350;2023-02-11T07:44:17;41.70;;;17.98;;
40707;SDS011;26392;42.696;23.350;2023-02-11T07:46:43;47.03;;;18.92;;
40707;SDS011;26392;42.696;23.350;2023-02-11T07:49:09;61.17;;;27.80;;
40707;SDS011;26392;42.696;23.350;2023-02-11T07:51:35;47.05;;;18.92;;
40707;SDS011;26392;42.696;23.350;2023-02-11T07:54:01;42.83;;;17.95;;
40707;SDS011;26392;42.696;23.350;2023-02-11T07:56:26;38.88;;;17.30;;
40707;SDS011;26392;42.696;23.350;2023-02-11T07:58:53;41.88;;;16.83;;
40707;SDS011;26392;42.696;23.350;2023-02-11T08:01:22;43.40;;;17.60;;
40707;SDS011;26392;42.696;23.350;2023-02-11T08:03:51;48.97;;;17.65;;
40707;SDS011;26392;42.696;23.350;2023-02-11T08:06:18;47.03;;;18.95;;
40707;SDS011;26392;42.696;23.350;2023-02-11T08:08:45;48.33;;;18.88;;
40707;SDS011;26392;42.696;23.350;2023-02-11T08:11:18;49.88;;;20.40;;
40707;SDS011;26392;42.696;23.350;2023-02-11T08:13:48;53.97;;;20.00;;
40707;SDS011;26392;42.696;23.350;2023-02-11T08:16:23;55.67;;;20.42;;
40707;SDS011;26392;42.696;23.350;2023-02-11T08:18:50;55.33;;;21.17;;
40707;SDS011;26392;42.696;23.350;2023-02-11T08:21:17;52.28;;;20.48;;
40707;SDS011;26392;42.696;23.350;2023-02-11T08:23:44;45.97;;;18.88;;
40707;SDS011;26392;42.696;23.350;2023-02-11T08:26:14;61.25;;;23.27;;
40707;SDS011;26392;42.696;23.350;2023-02-11T08:28:41;48.88;;;18.05;;
40707;SDS011;26392;42.696;23.350;2023-02-11T08:31:09;52.55;;;22.17;;
40707;SDS011;26392;42.696;23.350;2023-02-11T08:33:37;49.35;;;17.13;;
40707;SDS011;26392;42.696;23.350;2023-02-11T08:36:14;38.15;;;14.82;;
40707;SDS011;26392;42.696;23.350;2023-02-11T08:38:42;46.42;;;17.92;;
40707;SDS011;26392;42.696;23.350;2023-02-11T08:41:08;43.13;;;17.50;;
40707;SDS011;26392;42.696;23.350;2023-02-11T08:43:34;46.85;;;17.13;;
40707;SDS011;26392;42.696;23.350;2023-02-11T08:46:00;50.10;;;19.00;;
40707;SDS011;26392;42.696;23.350;2023-02-11T08:48:26;46.50;;;18.17;;
40707;SDS011;26392;42.696;23.350;2023-02-11T08:50:53;77.10;;;25.35;;
40707;SDS011;26392;42.696;23.350;2023-02-11T08:53:19;151.30;;;52.15;;
40707;SDS011;26392;42.696;23.350;2023-02-11T08:55:51;71.35;;;28.38;;
40707;SDS011;26392;42.696;23.350;2023-02-11T08:58:18;43.78;;;17.85;;
40707;SDS011;26392;42.696;23.350;2023-02-11T09:00:45;79.90;;;29.40;;
40707;SDS011;26392;42.696;23.350;2023-02-11T09:03:11;46.05;;;17.00;;
40707;SDS011;26392;42.696;23.350;2023-02-11T09:05:41;43.70;;;16.70;;
40707;SDS011;26392;42.696;23.350;2023-02-11T09:08:07;46.10;;;17.77;;
40707;SDS011;26392;42.696;23.350;2023-02-11T09:10:34;39.25;;;16.08;;
40707;SDS011;26392;42.696;23.350;2023-02-11T09:12:59;45.63;;;18.38;;
40707;SDS011;26392;42.696;23.350;2023-02-11T09:15:25;46.47;;;17.23;;
40707;SDS011;26392;42.696;23.350;2023-02-11T09:17:50;38.97;;;15.95;;
40707;SDS011;26392;42.696;23.350;2023-02-11T09:20:16;41.10;;;15.98;;
40707;SDS011;26392;42.696;23.350;2023-02-11T09:22:41;43.08;;;16.02;;
40707;SDS011;26392;42.696;23.350;2023-02-11T09:25:07;44.38;;;17.13;;
40707;SDS011;26392;42.696;23.350;2023-02-11T09:27:32;42.03;;;16.42;;
40707;SDS011;26392;42.696;23.350;2023-02-11T09:29:58;47.63;;;17.00;;
40707;SDS011;26392;42.696;23.350;2023-02-11T09:32:23;41.80;;;16.88;;
40707;SDS011;26392;42.696;23.350;2023-02-11T09:34:49;38.30;;;14.85;;
40707;SDS011;26392;42.696;23.350;2023-02-11T09:37:14;42.97;;;15.93;;
40707;SDS011;26392;42.696;23.350;2023-02-11T09:39:39;40.45;;;14.57;;
40707;SDS011;26392;42.696;23.350;2023-02-11T09:45:01;33.85;;;14.57;;
40707;SDS011;26392;42.696;23.350;2023-02-11T09:47:31;43.25;;;15.20;;
40707;SDS011;26392;42.696;23.350;2023-02-11T09:55:26;39.60;;;16.48;;
40707;SDS011;26392;42.696;23.350;2023-02-11T09:57:55;41.55;;;15.88;;
40707;SDS011;26392;42.696;23.350;2023-02-11T10:00:30;29.70;;;14.30;;
40707;SDS011;26392;42.696;23.350;2023-02-11T10:22:48;34.05;;;12.13;;
40707;SDS011;26392;42.696;23.350;2023-02-11T10:25:21;74.18;;;25.48;;
40707;SDS011;26392;42.696;23.350;2023-02-11T10:27:50;33.17;;;12.98;;
40707;SDS011;26392;42.696;23.350;2023-02-11T10:30:19;32.53;;;11.95;;
40707;SDS011;26392;42.696;23.350;2023-02-11T10:35:33;25.98;;;10.55;;
40707;SDS011;26392;42.696;23.350;2023-02-11T10:37:58;27.10;;;10.75;;
40707;SDS011;26392;42.696;23.350;2023-02-11T10:40:25;23.08;;;9.63;;
40707;SDS011;26392;42.696;23.350;2023-02-11T10:43:02;28.77;;;12.55;;
40707;SDS011;26392;42.696;23.350;2023-02-11T10:45:49;29.70;;;11.55;;
40707;SDS011;26392;42.696;23.350;2023-02-11T10:53:40;27.00;;;10.70;;
40707;SDS011;26392;42.696;23.350;2023-02-11T10:56:06;31.60;;;12.15;;
40707;SDS011;26392;42.696;23.350;2023-02-11T10:58:43;30.80;;;11.10;;
40707;SDS011;26392;42.696;23.350;2023-02-11T11:01:10;29.40;;;10.43;;
40707;SDS011;26392;42.696;23.350;2023-02-11T11:03:38;56.78;;;21.60;;
40707;SDS011;26392;42.696;23.350;2023-02-11T11:06:10;39.05;;;12.77;;
40707;SDS011;26392;42.696;23.350;2023-02-11T11:08:57;39.00;;;14.63;;
40707;SDS011;26392;42.696;23.350;2023-02-11T11:11:22;35.42;;;13.32;;
40707;SDS011;26392;42.696;23.350;2023-02-11T11:16:22;33.40;;;12.63;;
40707;SDS011;26392;42.696;23.350;2023-02-11T11:18:49;39.30;;;12.65;;
40707;SDS011;26392;42.696;23.350;2023-02-11T11:21:24;24.67;;;10.95;;
40707;SDS011;26392;42.696;23.350;2023-02-11T11:24:01;25.17;;;10.82;;
40707;SDS011;26392;42.696;23.350;2023-02-11T11:26:37;24.40;;;10.85;;
40707;SDS011;26392;42.696;23.350;2023-02-11T11:32:03;21.40;;;9.60;;
40707;SDS011;26392;42.696;23.350;2023-02-11T11:34:39;29.55;;;11.60;;
40707;SDS011;26392;42.696;23.350;2023-02-11T11:37:16;24.45;;;10.35;;
40707;SDS011;26392;42.696;23.350;2023-02-11T11:42:40;20.60;;;8.68;;
40707;SDS011;26392;42.696;23.350;2023-02-11T11:47:42;32.15;;;14.32;;
40707;SDS011;26392;42.696;23.350;2023-02-11T11:53:21;44.63;;;18.83;;
40707;SDS011;26392;42.696;23.350;2023-02-11T11:55:55;25.95;;;10.93;;
40707;SDS011;26392;42.696;23.350;2023-02-11T11:58:26;21.70;;;8.20;;
40707;SDS011;26392;42.696;23.350;2023-02-11T12:19:58;20.58;;;7.65;;
40707;SDS011;26392;42.696;23.350;2023-02-11T12:36:07;18.65;;;7.65;;
40707;SDS011;26392;42.696;23.350;2023-02-11T12:50:39;15.07;;;7.15;;
40707;SDS011;26392;42.696;23.350;2023-02-11T12:53:33;17.27;;;7.47;;
40707;SDS011;26392;42.696;23.350;2023-02-11T12:56:25;16.45;;;6.88;;
40707;SDS011;26392;42.696;23.350;2023-02-11T12:58:58;21.10;;;8.63;;
40707;SDS011;26392;42.696;23.350;2023-02-11T13:01:31;29.02;;;13.77;;
40707;SDS011;26392;42.696;23.350;2023-02-11T13:04:07;25.23;;;9.55;;
40707;SDS011;26392;42.696;23.350;2023-02-11T13:09:40;21.50;;;8.55;;
40707;SDS011;26392;42.696;23.350;2023-02-11T13:12:12;21.92;;;9.50;;
40707;SDS011;26392;42.696;23.350;2023-02-11T13:15:01;17.77;;;8.32;;
40707;SDS011;26392;42.696;23.350;2023-02-11T13:17:40;22.65;;;8.07;;
40707;SDS011;26392;42.696;23.350;2023-02-11T13:26:15;23.27;;;8.40;;
40707;SDS011;26392;42.696;23.350;2023-02-11T13:31:21;31.98;;;12.70;;
40707;SDS011;26392;42.696;23.350;2023-02-11T13:33:50;21.75;;;8.57;;
40707;SDS011;26392;42.696;23.350;2023-02-11T13:36:17;13.02;;;6.97;;
40707;SDS011;26392;42.696;23.350;2023-02-11T13:38:51;15.05;;;7.25;;
40707;SDS011;26392;42.696;23.350;2023-02-11T13:41:37;18.90;;;7.75;;
40707;SDS011;26392;42.696;23.350;2023-02-11T13:46:47;28.45;;;11.35;;
40707;SDS011;26392;42.696;23.350;2023-02-11T13:49:51;16.80;;;8.40;;
40707;SDS011;26392;42.696;23.350;2023-02-11T13:52:32;17.52;;;7.43;;
40707;SDS011;26392;42.696;23.350;2023-02-11T13:57:36;16.83;;;7.15;;
40707;SDS011;26392;42.696;23.350;2023-02-11T14:02:36;16.27;;;6.65;;
40707;SDS011;26392;42.696;23.350;2023-02-11T14:05:22;19.77;;;7.28;;
40707;SDS011;26392;42.696;23.350;2023-02-11T14:08:15;19.40;;;7.53;;
40707;SDS011;26392;42.696;23.350;2023-02-11T14:13:35;15.10;;;7.10;;
40707;SDS011;26392;42.696;23.350;2023-02-11T14:16:22;14.00;;;6.65;;
40707;SDS011;26392;42.696;23.350;2023-02-11T14:31:42;20.90;;;7.68;;
40707;SDS011;26392;42.696;23.350;2023-02-11T14:42:06;17.10;;;7.72;;
40707;SDS011;26392;42.696;23.350;2023-02-11T14:44:43;17.50;;;7.65;;
40707;SDS011;26392;42.696;23.350;2023-02-11T14:47:17;20.30;;;8.50;;
40707;SDS011;26392;42.696;23.350;2023-02-11T14:49:47;22.48;;;7.63;;
40707;SDS011;26392;42.696;23.350;2023-02-11T14:52:32;13.20;;;7.40;;
40707;SDS011;26392;42.696;23.350;2023-02-11T15:08:30;23.20;;;8.48;;
40707;SDS011;26392;42.696;23.350;2023-02-11T15:10:59;21.02;;;8.45;;
40707;SDS011;26392;42.696;23.350;2023-02-11T15:13:29;18.45;;;8.32;;
40707;SDS011;26392;42.696;23.350;2023-02-11T15:16:00;18.70;;;8.52;;
40707;SDS011;26392;42.696;23.350;2023-02-11T15:20:58;20.33;;;7.60;;
40707;SDS011;26392;42.696;23.350;2023-02-11T15:23:24;20.88;;;8.57;;
40707;SDS011;26392;42.696;23.350;2023-02-11T15:25:53;19.98;;;9.02;;
40707;SDS011;26392;42.696;23.350;2023-02-11T15:28:25;76.07;;;25.08;;
40707;SDS011;26392;42.696;23.350;2023-02-11T15:30:56;18.05;;;8.02;;
40707;SDS011;26392;42.696;23.350;2023-02-11T15:33:48;19.98;;;8.48;;
40707;SDS011;26392;42.696;23.350;2023-02-11T15:36:14;22.92;;;10.30;;
40707;SDS011;26392;42.696;23.350;2023-02-11T15:38:42;25.10;;;10.10;;
40707;SDS011;26392;42.696;23.350;2023-02-11T15:41:28;40.10;;;18.63;;
40707;SDS011;26392;42.696;23.350;2023-02-11T15:44:02;23.52;;;8.55;;
40707;SDS011;26392;42.696;23.350;2023-02-11T15:46:31;19.88;;;9.07;;
40707;SDS011;26392;42.696;23.350;2023-02-11T15:49:03;26.13;;;10.07;;
40707;SDS011;26392;42.696;23.350;2023-02-11T15:51:31;30.80;;;11.45;;
40707;SDS011;26392;42.696;23.350;2023-02-11T15:54:04;27.77;;;10.88;;
40707;SDS011;26392;42.696;23.350;2023-02-11T15:56:40;29.58;;;11.85;;
40707;SDS011;26392;42.696;23.350;2023-02-11T15:59:18;24.90;;;10.35;;
40707;SDS011;26392;42.696;23.350;2023-02-11T16:01:47;30.60;;;12.15;;
40707;SDS011;26392;42.696;23.350;2023-02-11T16:04:14;32.50;;;11.70;;
40707;SDS011;26392;42.696;23.350;2023-02-11T16:06:42;30.52;;;12.45;;
40707;SDS011;26392;42.696;23.350;2023-02-11T16:33:35;33.88;;;12.63;;
40707;SDS011;26392;42.696;23.350;2023-02-11T16:36:01;32.38;;;12.40;;
40707;SDS011;26392;42.696;23.350;2023-02-11T16:38:34;24.50;;;10.07;;
40707;SDS011;26392;42.696;23.350;2023-02-11T16:40:59;32.25;;;13.00;;
40707;SDS011;26392;42.696;23.350;2023-02-11T16:43:25;28.58;;;13.25;;
40707;SDS011;26392;42.696;23.350;2023-02-11T16:45:50;29.08;;;11.88;;
40707;SDS011;26392;42.696;23.350;2023-02-11T16:48:16;36.63;;;12.93;;
40707;SDS011;26392;42.696;23.350;2023-02-11T16:50:45;27.48;;;12.15;;
40707;SDS011;26392;42.696;23.350;2023-02-11T16:53:21;33.70;;;12.98;;
40707;SDS011;26392;42.696;23.350;2023-02-11T16:55:49;29.25;;;12.73;;
40707;SDS011;26392;42.696;23.350;2023-02-11T16:58:15;27.33;;;12.63;;
40707;SDS011;26392;42.696;23.350;2023-02-11T17:00:41;31.38;;;13.20;;
40707;SDS011;26392;42.696;23.350;2023-02-11T17:03:09;32.38;;;14.20;;
40707;SDS011;26392;42.696;23.350;2023-02-11T17:05:45;26.13;;;12.45;;
40707;SDS011;26392;42.696;23.350;2023-02-11T17:08:11;30.02;;;13.07;;
40707;SDS011;26392;42.696;23.350;2023-02-11T17:10:36;36.40;;;13.10;;
40707;SDS011;26392;42.696;23.350;2023-02-11T17:13:02;37.13;;;14.43;;
40707;SDS011;26392;42.696;23.350;2023-02-11T17:15:29;31.90;;;12.95;;
40707;SDS011;26392;42.696;23.350;2023-02-11T17:17:54;29.83;;;12.48;;
40707;SDS011;26392;42.696;23.350;2023-02-11T17:20:20;31.75;;;13.25;;
40707;SDS011;26392;42.696;23.350;2023-02-11T17:22:45;36.88;;;14.00;;
40707;SDS011;26392;42.696;23.350;2023-02-11T17:25:11;30.85;;;12.60;;
40707;SDS011;26392;42.696;23.350;2023-02-11T17:27:36;32.38;;;12.60;;
40707;SDS011;26392;42.696;23.350;2023-02-11T17:30:02;27.75;;;12.05;;
40707;SDS011;26392;42.696;23.350;2023-02-11T17:32:28;31.27;;;13.13;;
40707;SDS011;26392;42.696;23.350;2023-02-11T17:34:53;30.35;;;11.95;;
40707;SDS011;26392;42.696;23.350;2023-02-11T17:37:19;33.67;;;15.10;;
40707;SDS011;26392;42.696;23.350;2023-02-11T17:39:44;31.20;;;12.60;;
40707;SDS011;26392;42.696;23.350;2023-02-11T17:42:10;28.65;;;12.43;;
40707;SDS011;26392;42.696;23.350;2023-02-11T17:44:36;31.83;;;12.95;;
40707;SDS011;26392;42.696;23.350;2023-02-11T17:47:02;29.50;;;13.23;;
40707;SDS011;26392;42.696;23.350;2023-02-11T17:49:27;31.77;;;13.40;;
40707;SDS011;26392;42.696;23.350;2023-02-11T17:51:53;37.83;;;17.48;;
40707;SDS011;26392;42.696;23.350;2023-02-11T17:54:19;38.47;;;15.50;;
40707;SDS011;26392;42.696;23.350;2023-02-11T17:56:45;30.40;;;13.02;;
40707;SDS011;26392;42.696;23.350;2023-02-11T17:59:11;32.97;;;12.25;;
40707;SDS011;26392;42.696;23.350;2023-02-11T18:01:38;26.52;;;12.40;;
40707;SDS011;26392;42.696;23.350;2023-02-11T18:04:05;29.58;;;13.38;;
40707;SDS011;26392;42.696;23.350;2023-02-11T18:06:32;27.48;;;12.00;;
40707;SDS011;26392;42.696;23.350;2023-02-11T18:08:58;31.33;;;12.57;;
40707;SDS011;26392;42.696;23.350;2023-02-11T18:11:26;31.40;;;13.13;;